sensor_id;sensor_type;location;lat;lon;timestamp;P1;durP1;ratioP1;P2;durP2;ratioP2
50122;SDS011;36021;48.670;6.184;2023-04-03T00:00:44;4.13;;;2.30;;
50122;SDS011;36021;48.670;6.184;2023-04-03T00:03:10;4.18;;;1.90;;
50122;SDS011;36021;48.670;6.184;2023-04-03T00:05:36;3.58;;;2.10;;
50122;SDS011;36021;48.670;6.184;2023-04-03T00:08:02;5.43;;;2.72;;
50122;SDS011;36021;48.670;6.184;2023-04-03T00:10:28;10.68;;;2.78;;
50122;SDS011;36021;48.670;6.184;2023-04-03T00:12:53;4.13;;;2.58;;
50122;SDS011;36021;48.670;6.184;2023-04-03T00:15:20;3.47;;;2.15;;
50122;SDS011;36021;48.670;6.184;2023-04-03T00:17:46;4.47;;;2.47;;
50122;SDS011;36021;48.670;6.184;2023-04-03T00:20:13;5.55;;;2.40;;
50122;SDS011;36021;48.670;6.184;2023-04-03T00:22:38;3.78;;;2.17;;
50122;SDS011;36021;48.670;6.184;2023-04-03T00:25:04;5.00;;;2.70;;
50122;SDS011;36021;48.670;6.184;2023-04-03T00:27:30;7.40;;;2.40;;
50122;SDS011;36021;48.670;6.184;2023-04-03T00:29:56;5.05;;;2.40;;
50122;SDS011;36021;48.670;6.184;2023-04-03T00:32:21;3.78;;;2.38;;
50122;SDS011;36021;48.670;6.184;2023-04-03T00:34:47;4.43;;;2.45;;
50122;SDS011;36021;48.670;6.184;2023-04-03T00:37:13;7.93;;;2.83;;
50122;SDS011;36021;48.670;6.184;2023-04-03T00:39:39;2.47;;;1.98;;
50122;SDS011;36021;48.670;6.184;2023-04-03T00:42:07;2.70;;;1.98;;
50122;SDS011;36021;48.670;6.184;2023-04-03T00:47:00;2.92;;;2.22;;
50122;SDS011;36021;48.670;6.184;2023-04-03T00:49:27;3.70;;;2.08;;
50122;SDS011;36021;48.670;6.184;2023-04-03T00:51:53;2.42;;;1.80;;
50122;SDS011;36021;48.670;6.184;2023-04-03T00:54:20;3.30;;;2.10;;
50122;SDS011;36021;48.670;6.184;2023-04-03T00:56:48;4.47;;;2.20;;
50122;SDS011;36021;48.670;6.184;2023-04-03T00:59:19;2.42;;;1.90;;
50122;SDS011;36021;48.670;6.184;2023-04-03T01:01:50;6.40;;;2.60;;
50122;SDS011;36021;48.670;6.184;2023-04-03T01:06:58;3.45;;;2.15;;
50122;SDS011;36021;48.670;6.184;2023-04-03T01:09:29;3.80;;;2.20;;
50122;SDS011;36021;48.670;6.184;2023-04-03T01:12:12;2.95;;;1.95;;
50122;SDS011;36021;48.670;6.184;2023-04-03T01:15:03;2.22;;;1.77;;
50122;SDS011;36021;48.670;6.184;2023-04-03T01:17:41;7.88;;;2.05;;
50122;SDS011;36021;48.670;6.184;2023-04-03T01:25:28;4.63;;;2.20;;
50122;SDS011;36021;48.670;6.184;2023-04-03T01:27:54;4.43;;;2.22;;
50122;SDS011;36021;48.670;6.184;2023-04-03T01:30:21;7.22;;;2.17;;
50122;SDS011;36021;48.670;6.184;2023-04-03T01:32:53;5.18;;;2.30;;
50122;SDS011;36021;48.670;6.184;2023-04-03T01:35:19;4.82;;;2.13;;
50122;SDS011;36021;48.670;6.184;2023-04-03T01:37:45;5.13;;;2.15;;
50122;SDS011;36021;48.670;6.184;2023-04-03T01:40:11;3.05;;;1.85;;
50122;SDS011;36021;48.670;6.184;2023-04-03T01:42:40;2.73;;;1.67;;
50122;SDS011;36021;48.670;6.184;2023-04-03T01:45:08;5.65;;;2.50;;
50122;SDS011;36021;48.670;6.184;2023-04-03T01:47:34;5.80;;;2.53;;
50122;SDS011;36021;48.670;6.184;2023-04-03T01:50:00;3.35;;;2.08;;
50122;SDS011;36021;48.670;6.184;2023-04-03T01:54:55;4.53;;;2.10;;
50122;SDS011;36021;48.670;6.184;2023-04-03T01:57:22;3.28;;;2.00;;
50122;SDS011;36021;48.670;6.184;2023-04-03T01:59:48;4.20;;;2.25;;
50122;SDS011;36021;48.670;6.184;2023-04-03T02:02:14;4.97;;;2.17;;
50122;SDS011;36021;48.670;6.184;2023-04-03T02:04:40;4.72;;;2.20;;
50122;SDS011;36021;48.670;6.184;2023-04-03T02:07:06;5.25;;;1.98;;
50122;SDS011;36021;48.670;6.184;2023-04-03T02:09:32;3.33;;;1.98;;
50122;SDS011;36021;48.670;6.184;2023-04-03T02:11:59;3.85;;;2.10;;
50122;SDS011;36021;48.670;6.184;2023-04-03T02:14:25;6.93;;;2.70;;
50122;SDS011;36021;48.670;6.184;2023-04-03T02:16:54;9.57;;;2.22;;
50122;SDS011;36021;48.670;6.184;2023-04-03T02:19:21;3.03;;;1.95;;
50122;SDS011;36021;48.670;6.184;2023-04-03T02:21:47;3.55;;;2.03;;
50122;SDS011;36021;48.670;6.184;2023-04-03T02:24:14;2.88;;;1.85;;
50122;SDS011;36021;48.670;6.184;2023-04-03T02:26:40;4.15;;;1.70;;
50122;SDS011;36021;48.670;6.184;2023-04-03T02:29:05;2.47;;;1.80;;
50122;SDS011;36021;48.670;6.184;2023-04-03T02:31:31;5.28;;;2.13;;
50122;SDS011;36021;48.670;6.184;2023-04-03T02:34:01;4.05;;;1.92;;
50122;SDS011;36021;48.670;6.184;2023-04-03T02:36:26;3.33;;;1.95;;
50122;SDS011;36021;48.670;6.184;2023-04-03T02:38:56;2.80;;;2.05;;
50122;SDS011;36021;48.670;6.184;2023-04-03T02:41:22;4.72;;;1.80;;
50122;SDS011;36021;48.670;6.184;2023-04-03T02:43:51;2.83;;;1.75;;
50122;SDS011;36021;48.670;6.184;2023-04-03T02:46:16;6.65;;;2.70;;
50122;SDS011;36021;48.670;6.184;2023-04-03T02:48:42;4.78;;;2.28;;
50122;SDS011;36021;48.670;6.184;2023-04-03T02:51:09;4.97;;;1.58;;
50122;SDS011;36021;48.670;6.184;2023-04-03T02:53:34;5.55;;;1.77;;
50122;SDS011;36021;48.670;6.184;2023-04-03T02:56:06;3.10;;;1.75;;
50122;SDS011;36021;48.670;6.184;2023-04-03T02:58:34;2.47;;;1.60;;
50122;SDS011;36021;48.670;6.184;2023-04-03T03:01:01;1.67;;;1.50;;
50122;SDS011;36021;48.670;6.184;2023-04-03T03:03:27;2.13;;;1.48;;
50122;SDS011;36021;48.670;6.184;2023-04-03T03:06:03;3.35;;;1.90;;
50122;SDS011;36021;48.670;6.184;2023-04-03T03:08:30;2.38;;;1.52;;
50122;SDS011;36021;48.670;6.184;2023-04-03T03:10:58;2.25;;;1.55;;
50122;SDS011;36021;48.670;6.184;2023-04-03T03:13:24;2.63;;;1.90;;
50122;SDS011;36021;48.670;6.184;2023-04-03T03:15:50;3.38;;;1.58;;
50122;SDS011;36021;48.670;6.184;2023-04-03T03:18:17;2.00;;;1.48;;
50122;SDS011;36021;48.670;6.184;2023-04-03T03:20:45;2.42;;;1.85;;
50122;SDS011;36021;48.670;6.184;2023-04-03T03:23:12;2.75;;;1.60;;
50122;SDS011;36021;48.670;6.184;2023-04-03T03:25:38;3.45;;;2.13;;
50122;SDS011;36021;48.670;6.184;2023-04-03T03:28:07;2.58;;;1.58;;
50122;SDS011;36021;48.670;6.184;2023-04-03T03:30:33;2.85;;;2.05;;
50122;SDS011;36021;48.670;6.184;2023-04-03T03:32:59;2.55;;;1.55;;
50122;SDS011;36021;48.670;6.184;2023-04-03T03:35:25;2.45;;;1.65;;
50122;SDS011;36021;48.670;6.184;2023-04-03T03:37:50;2.15;;;1.48;;
50122;SDS011;36021;48.670;6.184;2023-04-03T03:40:16;2.08;;;1.30;;
50122;SDS011;36021;48.670;6.184;2023-04-03T03:42:46;1.63;;;1.52;;
50122;SDS011;36021;48.670;6.184;2023-04-03T03:45:13;3.22;;;1.70;;
50122;SDS011;36021;48.670;6.184;2023-04-03T03:47:40;2.05;;;1.75;;
50122;SDS011;36021;48.670;6.184;2023-04-03T03:50:06;1.73;;;1.30;;
50122;SDS011;36021;48.670;6.184;2023-04-03T03:52:32;3.10;;;1.67;;
50122;SDS011;36021;48.670;6.184;2023-04-03T03:54:58;1.98;;;1.48;;
50122;SDS011;36021;48.670;6.184;2023-04-03T03:57:27;2.15;;;1.50;;
50122;SDS011;36021;48.670;6.184;2023-04-03T03:59:54;2.13;;;1.38;;
50122;SDS011;36021;48.670;6.184;2023-04-03T04:02:20;2.15;;;1.60;;
50122;SDS011;36021;48.670;6.184;2023-04-03T04:04:46;1.35;;;1.25;;
50122;SDS011;36021;48.670;6.184;2023-04-03T04:07:13;2.33;;;1.73;;
50122;SDS011;36021;48.670;6.184;2023-04-03T04:09:38;5.22;;;1.40;;
50122;SDS011;36021;48.670;6.184;2023-04-03T04:12:06;2.22;;;1.35;;
50122;SDS011;36021;48.670;6.184;2023-04-03T04:14:32;1.27;;;1.17;;
50122;SDS011;36021;48.670;6.184;2023-04-03T04:17:00;4.07;;;1.50;;
50122;SDS011;36021;48.670;6.184;2023-04-03T04:19:28;2.07;;;1.57;;
50122;SDS011;36021;48.670;6.184;2023-04-03T04:21:53;1.73;;;1.27;;
50122;SDS011;36021;48.670;6.184;2023-04-03T04:24:19;2.17;;;1.60;;
50122;SDS011;36021;48.670;6.184;2023-04-03T04:26:47;2.97;;;1.17;;
50122;SDS011;36021;48.670;6.184;2023-04-03T04:29:14;4.05;;;1.50;;
50122;SDS011;36021;48.670;6.184;2023-04-03T04:31:40;3.10;;;1.70;;
50122;SDS011;36021;48.670;6.184;2023-04-03T04:34:06;1.75;;;1.23;;
50122;SDS011;36021;48.670;6.184;2023-04-03T04:36:33;2.45;;;1.63;;
50122;SDS011;36021;48.670;6.184;2023-04-03T04:38:59;2.92;;;1.35;;
50122;SDS011;36021;48.670;6.184;2023-04-03T04:41:26;1.85;;;1.25;;
50122;SDS011;36021;48.670;6.184;2023-04-03T04:43:52;2.58;;;1.55;;
50122;SDS011;36021;48.670;6.184;2023-04-03T04:46:20;2.42;;;1.60;;
50122;SDS011;36021;48.670;6.184;2023-04-03T04:48:51;1.15;;;1.13;;
50122;SDS011;36021;48.670;6.184;2023-04-03T04:51:19;2.00;;;1.75;;
50122;SDS011;36021;48.670;6.184;2023-04-03T04:53:45;2.40;;;1.55;;
50122;SDS011;36021;48.670;6.184;2023-04-03T04:56:13;2.92;;;1.38;;
50122;SDS011;36021;48.670;6.184;2023-04-03T04:58:42;3.22;;;1.58;;
50122;SDS011;36021;48.670;6.184;2023-04-03T05:01:09;1.60;;;1.33;;
50122;SDS011;36021;48.670;6.184;2023-04-03T05:03:43;3.88;;;1.73;;
50122;SDS011;36021;48.670;6.184;2023-04-03T05:06:09;1.20;;;0.85;;
50122;SDS011;36021;48.670;6.184;2023-04-03T05:08:37;1.55;;;1.40;;
50122;SDS011;36021;48.670;6.184;2023-04-03T05:11:03;5.88;;;1.58;;
50122;SDS011;36021;48.670;6.184;2023-04-03T05:13:30;3.17;;;1.52;;
50122;SDS011;36021;48.670;6.184;2023-04-03T05:15:56;2.72;;;1.50;;
50122;SDS011;36021;48.670;6.184;2023-04-03T05:18:23;1.58;;;1.30;;
50122;SDS011;36021;48.670;6.184;2023-04-03T05:20:51;1.40;;;1.20;;
50122;SDS011;36021;48.670;6.184;2023-04-03T05:23:18;2.83;;;1.42;;
50122;SDS011;36021;48.670;6.184;2023-04-03T05:25:44;1.05;;;0.95;;
50122;SDS011;36021;48.670;6.184;2023-04-03T05:28:12;2.20;;;1.40;;
50122;SDS011;36021;48.670;6.184;2023-04-03T05:30:38;2.72;;;1.90;;
50122;SDS011;36021;48.670;6.184;2023-04-03T05:33:04;2.80;;;1.30;;
50122;SDS011;36021;48.670;6.184;2023-04-03T05:35:43;1.73;;;1.30;;
50122;SDS011;36021;48.670;6.184;2023-04-03T05:38:13;2.15;;;1.95;;
50122;SDS011;36021;48.670;6.184;2023-04-03T05:40:39;1.88;;;1.33;;
50122;SDS011;36021;48.670;6.184;2023-04-03T05:43:06;1.90;;;1.40;;
50122;SDS011;36021;48.670;6.184;2023-04-03T05:45:36;3.67;;;1.27;;
50122;SDS011;36021;48.670;6.184;2023-04-03T05:48:02;2.33;;;1.63;;
50122;SDS011;36021;48.670;6.184;2023-04-03T05:50:29;5.68;;;2.25;;
50122;SDS011;36021;48.670;6.184;2023-04-03T05:52:56;1.92;;;1.30;;
50122;SDS011;36021;48.670;6.184;2023-04-03T05:55:25;2.00;;;1.33;;
50122;SDS011;36021;48.670;6.184;2023-04-03T05:57:52;1.35;;;0.98;;
50122;SDS011;36021;48.670;6.184;2023-04-03T06:00:20;2.60;;;1.25;;
50122;SDS011;36021;48.670;6.184;2023-04-03T06:02:55;6.03;;;1.50;;
50122;SDS011;36021;48.670;6.184;2023-04-03T06:05:23;2.45;;;1.63;;
50122;SDS011;36021;48.670;6.184;2023-04-03T06:07:50;1.52;;;1.05;;
50122;SDS011;36021;48.670;6.184;2023-04-03T06:10:16;2.08;;;1.40;;
50122;SDS011;36021;48.670;6.184;2023-04-03T06:12:44;5.03;;;1.85;;
50122;SDS011;36021;48.670;6.184;2023-04-03T06:15:10;1.55;;;1.30;;
50122;SDS011;36021;48.670;6.184;2023-04-03T06:17:40;3.28;;;1.33;;
50122;SDS011;36021;48.670;6.184;2023-04-03T06:20:07;2.47;;;1.55;;
50122;SDS011;36021;48.670;6.184;2023-04-03T06:22:33;2.10;;;1.42;;
50122;SDS011;36021;48.670;6.184;2023-04-03T06:25:00;2.53;;;1.55;;
50122;SDS011;36021;48.670;6.184;2023-04-03T06:27:26;2.83;;;1.67;;
50122;SDS011;36021;48.670;6.184;2023-04-03T06:29:52;2.17;;;1.63;;
50122;SDS011;36021;48.670;6.184;2023-04-03T06:32:18;1.63;;;1.30;;
50122;SDS011;36021;48.670;6.184;2023-04-03T06:34:43;1.50;;;1.40;;
50122;SDS011;36021;48.670;6.184;2023-04-03T06:37:20;1.40;;;1.15;;
50122;SDS011;36021;48.670;6.184;2023-04-03T06:39:47;1.90;;;1.23;;
50122;SDS011;36021;48.670;6.184;2023-04-03T06:42:15;1.65;;;1.10;;
50122;SDS011;36021;48.670;6.184;2023-04-03T06:44:54;3.45;;;1.65;;
50122;SDS011;36021;48.670;6.184;2023-04-03T06:47:20;2.80;;;1.40;;
50122;SDS011;36021;48.670;6.184;2023-04-03T06:49:46;4.70;;;1.50;;
50122;SDS011;36021;48.670;6.184;2023-04-03T06:52:12;1.98;;;1.20;;
50122;SDS011;36021;48.670;6.184;2023-04-03T06:54:38;4.22;;;1.38;;
50122;SDS011;36021;48.670;6.184;2023-04-03T06:57:04;4.80;;;1.75;;
50122;SDS011;36021;48.670;6.184;2023-04-03T06:59:30;1.42;;;1.17;;
50122;SDS011;36021;48.670;6.184;2023-04-03T07:01:57;1.50;;;1.33;;
50122;SDS011;36021;48.670;6.184;2023-04-03T07:04:24;1.40;;;1.30;;
50122;SDS011;36021;48.670;6.184;2023-04-03T07:06:51;1.85;;;0.95;;
50122;SDS011;36021;48.670;6.184;2023-04-03T07:09:17;1.17;;;1.08;;
50122;SDS011;36021;48.670;6.184;2023-04-03T07:11:44;5.32;;;2.15;;
50122;SDS011;36021;48.670;6.184;2023-04-03T07:14:10;3.78;;;1.27;;
50122;SDS011;36021;48.670;6.184;2023-04-03T07:16:36;3.25;;;1.85;;
50122;SDS011;36021;48.670;6.184;2023-04-03T07:19:02;2.28;;;1.30;;
50122;SDS011;36021;48.670;6.184;2023-04-03T07:21:29;2.15;;;1.10;;
50122;SDS011;36021;48.670;6.184;2023-04-03T07:23:55;1.90;;;1.25;;
50122;SDS011;36021;48.670;6.184;2023-04-03T07:26:21;2.58;;;1.25;;
50122;SDS011;36021;48.670;6.184;2023-04-03T07:28:48;2.70;;;1.50;;
50122;SDS011;36021;48.670;6.184;2023-04-03T07:31:15;1.33;;;1.00;;
50122;SDS011;36021;48.670;6.184;2023-04-03T07:33:42;4.65;;;1.50;;
50122;SDS011;36021;48.670;6.184;2023-04-03T07:36:10;2.08;;;1.15;;
50122;SDS011;36021;48.670;6.184;2023-04-03T07:38:40;2.53;;;1.23;;
50122;SDS011;36021;48.670;6.184;2023-04-03T07:41:06;1.20;;;1.10;;
50122;SDS011;36021;48.670;6.184;2023-04-03T07:43:33;3.22;;;1.77;;
50122;SDS011;36021;48.670;6.184;2023-04-03T07:45:59;6.70;;;1.17;;
50122;SDS011;36021;48.670;6.184;2023-04-03T07:48:26;2.45;;;1.23;;
50122;SDS011;36021;48.670;6.184;2023-04-03T07:50:52;1.10;;;0.95;;
50122;SDS011;36021;48.670;6.184;2023-04-03T07:53:18;1.85;;;1.30;;
50122;SDS011;36021;48.670;6.184;2023-04-03T07:55:46;4.80;;;1.20;;
50122;SDS011;36021;48.670;6.184;2023-04-03T07:58:14;2.03;;;1.15;;
50122;SDS011;36021;48.670;6.184;2023-04-03T08:00:42;2.03;;;1.27;;
50122;SDS011;36021;48.670;6.184;2023-04-03T08:03:09;1.95;;;1.42;;
50122;SDS011;36021;48.670;6.184;2023-04-03T08:05:36;0.98;;;0.93;;
50122;SDS011;36021;48.670;6.184;2023-04-03T08:10:32;2.17;;;1.08;;
50122;SDS011;36021;48.670;6.184;2023-04-03T08:13:00;2.92;;;1.30;;
50122;SDS011;36021;48.670;6.184;2023-04-03T08:15:26;1.25;;;0.95;;
50122;SDS011;36021;48.670;6.184;2023-04-03T08:17:53;1.95;;;1.20;;
50122;SDS011;36021;48.670;6.184;2023-04-03T08:20:19;2.53;;;0.95;;
50122;SDS011;36021;48.670;6.184;2023-04-03T08:22:46;1.63;;;1.10;;
50122;SDS011;36021;48.670;6.184;2023-04-03T08:25:12;1.27;;;1.00;;
50122;SDS011;36021;48.670;6.184;2023-04-03T08:27:38;2.08;;;1.50;;
50122;SDS011;36021;48.670;6.184;2023-04-03T08:30:04;1.65;;;0.98;;
50122;SDS011;36021;48.670;6.184;2023-04-03T08:32:30;2.38;;;1.38;;
50122;SDS011;36021;48.670;6.184;2023-04-03T08:34:56;2.22;;;1.25;;
50122;SDS011;36021;48.670;6.184;2023-04-03T08:37:21;4.55;;;1.25;;
50122;SDS011;36021;48.670;6.184;2023-04-03T08:39:47;1.70;;;1.10;;
50122;SDS011;36021;48.670;6.184;2023-04-03T08:45:22;1.63;;;1.15;;
50122;SDS011;36021;48.670;6.184;2023-04-03T08:50:43;3.95;;;1.33;;
50122;SDS011;36021;48.670;6.184;2023-04-03T08:53:15;6.05;;;1.10;;
50122;SDS011;36021;48.670;6.184;2023-04-03T08:55:48;2.13;;;1.00;;
50122;SDS011;36021;48.670;6.184;2023-04-03T08:58:29;3.10;;;1.33;;
50122;SDS011;36021;48.670;6.184;2023-04-03T09:01:02;1.67;;;1.20;;
50122;SDS011;36021;48.670;6.184;2023-04-03T09:03:30;5.60;;;1.23;;
50122;SDS011;36021;48.670;6.184;2023-04-03T09:09:14;2.13;;;1.38;;
50122;SDS011;36021;48.670;6.184;2023-04-03T09:12:06;4.03;;;1.27;;
50122;SDS011;36021;48.670;6.184;2023-04-03T09:17:31;1.80;;;1.00;;
50122;SDS011;36021;48.670;6.184;2023-04-03T09:22:50;1.33;;;1.23;;
50122;SDS011;36021;48.670;6.184;2023-04-03T09:25:33;6.93;;;0.95;;
50122;SDS011;36021;48.670;6.184;2023-04-03T09:28:03;4.13;;;1.38;;
50122;SDS011;36021;48.670;6.184;2023-04-03T09:30:29;2.65;;;1.25;;
50122;SDS011;36021;48.670;6.184;2023-04-03T09:32:56;6.47;;;1.20;;
50122;SDS011;36021;48.670;6.184;2023-04-03T09:35:24;4.75;;;1.20;;
50122;SDS011;36021;48.670;6.184;2023-04-03T09:38:00;1.67;;;1.10;;
50122;SDS011;36021;48.670;6.184;2023-04-03T09:40:48;4.63;;;1.50;;
50122;SDS011;36021;48.670;6.184;2023-04-03T09:43:30;1.25;;;1.15;;
50122;SDS011;36021;48.670;6.184;2023-04-03T09:46:16;2.20;;;1.13;;
50122;SDS011;36021;48.670;6.184;2023-04-03T09:49:11;2.08;;;1.05;;
50122;SDS011;36021;48.670;6.184;2023-04-03T09:51:37;1.83;;;1.00;;
50122;SDS011;36021;48.670;6.184;2023-04-03T09:57:10;0.90;;;0.90;;
50122;SDS011;36021;48.670;6.184;2023-04-03T09:59:57;1.27;;;1.00;;
50122;SDS011;36021;48.670;6.184;2023-04-03T10:02:29;1.77;;;1.00;;
50122;SDS011;36021;48.670;6.184;2023-04-03T10:04:56;3.08;;;0.90;;
50122;SDS011;36021;48.670;6.184;2023-04-03T10:07:55;1.13;;;1.00;;
50122;SDS011;36021;48.670;6.184;2023-04-03T10:12:40;1.48;;;1.35;;
50122;SDS011;36021;48.670;6.184;2023-04-03T10:15:15;1.27;;;0.90;;
50122;SDS011;36021;48.670;6.184;2023-04-03T10:17:57;2.47;;;0.90;;
50122;SDS011;36021;48.670;6.184;2023-04-03T10:20:40;1.70;;;1.00;;
50122;SDS011;36021;48.670;6.184;2023-04-03T10:23:19;1.15;;;0.85;;
50122;SDS011;36021;48.670;6.184;2023-04-03T10:25:53;0.75;;;0.75;;
50122;SDS011;36021;48.670;6.184;2023-04-03T10:28:31;1.55;;;0.80;;
50122;SDS011;36021;48.670;6.184;2023-04-03T10:31:18;1.85;;;1.05;;
50122;SDS011;36021;48.670;6.184;2023-04-03T10:37:01;0.90;;;0.70;;
50122;SDS011;36021;48.670;6.184;2023-04-03T10:45:15;2.85;;;1.20;;
50122;SDS011;36021;48.670;6.184;2023-04-03T10:48:04;2.03;;;0.68;;
50122;SDS011;36021;48.670;6.184;2023-04-03T10:56:12;1.45;;;0.90;;
50122;SDS011;36021;48.670;6.184;2023-04-03T10:58:43;1.98;;;0.82;;
50122;SDS011;36021;48.670;6.184;2023-04-03T11:01:18;5.00;;;0.88;;
50122;SDS011;36021;48.670;6.184;2023-04-03T11:03:49;1.33;;;0.80;;
50122;SDS011;36021;48.670;6.184;2023-04-03T11:06:21;4.68;;;0.70;;
50122;SDS011;36021;48.670;6.184;2023-04-03T11:08:52;1.45;;;1.35;;
50122;SDS011;36021;48.670;6.184;2023-04-03T11:11:32;1.75;;;0.88;;
50122;SDS011;36021;48.670;6.184;2023-04-03T11:14:02;2.50;;;1.02;;
50122;SDS011;36021;48.670;6.184;2023-04-03T11:22:28;1.23;;;1.00;;
50122;SDS011;36021;48.670;6.184;2023-04-03T11:27:45;0.90;;;0.73;;
50122;SDS011;36021;48.670;6.184;2023-04-03T11:31:04;0.80;;;0.80;;
50122;SDS011;36021;48.670;6.184;2023-04-03T11:35:53;0.88;;;0.88;;
50122;SDS011;36021;48.670;6.184;2023-04-03T11:38:25;1.05;;;0.70;;
50122;SDS011;36021;48.670;6.184;2023-04-03T11:40:55;2.45;;;1.08;;
50122;SDS011;36021;48.670;6.184;2023-04-03T11:45:55;1.08;;;0.82;;
50122;SDS011;36021;48.670;6.184;2023-04-03T11:51:02;3.45;;;1.10;;
50122;SDS011;36021;48.670;6.184;2023-04-03T11:53:48;3.75;;;0.80;;
50122;SDS011;36021;48.670;6.184;2023-04-03T12:04:19;0.85;;;0.77;;
50122;SDS011;36021;48.670;6.184;2023-04-03T12:06:54;3.25;;;1.17;;
50122;SDS011;36021;48.670;6.184;2023-04-03T12:14:55;1.05;;;0.95;;
50122;SDS011;36021;48.670;6.184;2023-04-03T12:17:37;9.90;;;1.13;;
50122;SDS011;36021;48.670;6.184;2023-04-03T12:23:29;2.30;;;1.13;;
50122;SDS011;36021;48.670;6.184;2023-04-03T12:26:00;2.45;;;1.17;;
50122;SDS011;36021;48.670;6.184;2023-04-03T12:28:35;1.67;;;0.90;;
50122;SDS011;36021;48.670;6.184;2023-04-03T12:31:03;1.15;;;1.05;;
50122;SDS011;36021;48.670;6.184;2023-04-03T12:33:38;0.70;;;0.70;;
50122;SDS011;36021;48.670;6.184;2023-04-03T12:36:26;4.32;;;0.90;;
50122;SDS011;36021;48.670;6.184;2023-04-03T12:39:05;1.38;;;1.20;;
50122;SDS011;36021;48.670;6.184;2023-04-03T12:41:52;1.48;;;0.90;;
50122;SDS011;36021;48.670;6.184;2023-04-03T12:44:53;0.90;;;0.90;;
50122;SDS011;36021;48.670;6.184;2023-04-03T12:47:42;1.13;;;0.90;;
50122;SDS011;36021;48.670;6.184;2023-04-03T12:50:20;3.72;;;1.00;;
50122;SDS011;36021;48.670;6.184;2023-04-03T12:53:05;1.20;;;0.90;;
50122;SDS011;36021;48.670;6.184;2023-04-03T12:55:37;3.42;;;1.02;;
50122;SDS011;36021;48.670;6.184;2023-04-03T12:58:15;0.75;;;0.75;;
50122;SDS011;36021;48.670;6.184;2023-04-03T13:00:59;1.65;;;0.82;;
50122;SDS011;36021;48.670;6.184;2023-04-03T13:03:27;1.30;;;0.80;;
50122;SDS011;36021;48.670;6.184;2023-04-03T13:06:04;1.73;;;1.20;;
50122;SDS011;36021;48.670;6.184;2023-04-03T13:08:31;2.63;;;0.95;;
50122;SDS011;36021;48.670;6.184;2023-04-03T13:13:25;2.53;;;0.90;;
50122;SDS011;36021;48.670;6.184;2023-04-03T13:15:51;4.45;;;1.00;;
50122;SDS011;36021;48.670;6.184;2023-04-03T13:18:30;1.63;;;0.82;;
50122;SDS011;36021;48.670;6.184;2023-04-03T13:21:04;2.88;;;0.70;;
50122;SDS011;36021;48.670;6.184;2023-04-03T13:23:36;6.90;;;1.88;;
50122;SDS011;36021;48.670;6.184;2023-04-03T13:26:05;0.77;;;0.60;;
50122;SDS011;36021;48.670;6.184;2023-04-03T13:28:32;1.95;;;0.90;;
50122;SDS011;36021;48.670;6.184;2023-04-03T13:31:01;0.60;;;0.60;;
50122;SDS011;36021;48.670;6.184;2023-04-03T13:33:28;1.85;;;0.80;;
50122;SDS011;36021;48.670;6.184;2023-04-03T13:36:00;3.33;;;0.90;;
50122;SDS011;36021;48.670;6.184;2023-04-03T13:38:43;2.10;;;0.90;;
50122;SDS011;36021;48.670;6.184;2023-04-03T13:41:31;1.33;;;1.20;;
50122;SDS011;36021;48.670;6.184;2023-04-03T13:43:57;4.30;;;1.02;;
50122;SDS011;36021;48.670;6.184;2023-04-03T13:46:49;1.42;;;0.80;;
50122;SDS011;36021;48.670;6.184;2023-04-03T13:49:28;3.90;;;1.10;;
50122;SDS011;36021;48.670;6.184;2023-04-03T13:51:56;1.70;;;1.00;;
50122;SDS011;36021;48.670;6.184;2023-04-03T13:54:23;1.83;;;0.80;;
50122;SDS011;36021;48.670;6.184;2023-04-03T13:56:55;1.45;;;0.90;;
50122;SDS011;36021;48.670;6.184;2023-04-03T13:59:28;1.33;;;1.00;;
50122;SDS011;36021;48.670;6.184;2023-04-03T14:04:30;1.00;;;0.70;;
50122;SDS011;36021;48.670;6.184;2023-04-03T14:06:57;2.08;;;0.98;;
50122;SDS011;36021;48.670;6.184;2023-04-03T14:09:24;1.20;;;1.02;;
50122;SDS011;36021;48.670;6.184;2023-04-03T14:11:53;0.98;;;0.93;;
50122;SDS011;36021;48.670;6.184;2023-04-03T14:14:22;3.78;;;1.30;;
50122;SDS011;36021;48.670;6.184;2023-04-03T14:16:53;2.30;;;0.80;;
50122;SDS011;36021;48.670;6.184;2023-04-03T14:19:22;1.73;;;0.95;;
50122;SDS011;36021;48.670;6.184;2023-04-03T14:21:51;1.00;;;0.85;;
50122;SDS011;36021;48.670;6.184;2023-04-03T14:24:19;0.95;;;0.95;;
50122;SDS011;36021;48.670;6.184;2023-04-03T14:26:46;1.58;;;1.08;;
50122;SDS011;36021;48.670;6.184;2023-04-03T14:29:13;3.83;;;1.30;;
50122;SDS011;36021;48.670;6.184;2023-04-03T14:31:42;6.03;;;2.25;;
50122;SDS011;36021;48.670;6.184;2023-04-03T14:34:10;2.95;;;0.75;;
50122;SDS011;36021;48.670;6.184;2023-04-03T14:36:37;1.83;;;1.00;;
50122;SDS011;36021;48.670;6.184;2023-04-03T14:39:04;3.08;;;0.90;;
50122;SDS011;36021;48.670;6.184;2023-04-03T14:41:33;1.08;;;1.02;;
50122;SDS011;36021;48.670;6.184;2023-04-03T14:44:00;0.80;;;0.80;;
50122;SDS011;36021;48.670;6.184;2023-04-03T14:49:00;1.20;;;0.93;;
50122;SDS011;36021;48.670;6.184;2023-04-03T14:51:26;1.45;;;0.93;;
50122;SDS011;36021;48.670;6.184;2023-04-03T14:53:52;1.30;;;1.05;;
50122;SDS011;36021;48.670;6.184;2023-04-03T14:58:56;0.80;;;0.80;;
50122;SDS011;36021;48.670;6.184;2023-04-03T15:01:24;2.15;;;0.95;;
50122;SDS011;36021;48.670;6.184;2023-04-03T15:03:50;1.77;;;1.00;;
50122;SDS011;36021;48.670;6.184;2023-04-03T15:06:16;1.77;;;1.08;;
50122;SDS011;36021;48.670;6.184;2023-04-03T15:08:43;1.95;;;0.80;;
50122;SDS011;36021;48.670;6.184;2023-04-03T15:11:10;2.33;;;1.10;;
50122;SDS011;36021;48.670;6.184;2023-04-03T15:13:37;0.90;;;0.88;;
50122;SDS011;36021;48.670;6.184;2023-04-03T15:16:04;1.88;;;0.85;;
50122;SDS011;36021;48.670;6.184;2023-04-03T15:18:33;1.13;;;0.98;;
50122;SDS011;36021;48.670;6.184;2023-04-03T15:21:03;1.05;;;0.90;;
50122;SDS011;36021;48.670;6.184;2023-04-03T15:23:29;1.48;;;0.85;;
50122;SDS011;36021;48.670;6.184;2023-04-03T15:25:55;5.47;;;1.65;;
50122;SDS011;36021;48.670;6.184;2023-04-03T15:28:23;6.00;;;1.67;;
50122;SDS011;36021;48.670;6.184;2023-04-03T15:30:59;1.08;;;0.98;;
50122;SDS011;36021;48.670;6.184;2023-04-03T15:33:25;4.75;;;1.52;;
50122;SDS011;36021;48.670;6.184;2023-04-03T15:35:51;1.08;;;0.88;;
50122;SDS011;36021;48.670;6.184;2023-04-03T15:38:18;1.00;;;0.70;;
50122;SDS011;36021;48.670;6.184;2023-04-03T15:40:46;4.67;;;1.63;;
50122;SDS011;36021;48.670;6.184;2023-04-03T15:43:13;1.23;;;1.00;;
50122;SDS011;36021;48.670;6.184;2023-04-03T15:45:40;3.03;;;0.90;;
50122;SDS011;36021;48.670;6.184;2023-04-03T15:48:06;1.10;;;0.80;;
50122;SDS011;36021;48.670;6.184;2023-04-03T15:50:32;1.33;;;1.02;;
50122;SDS011;36021;48.670;6.184;2023-04-03T15:52:59;1.30;;;0.98;;
50122;SDS011;36021;48.670;6.184;2023-04-03T15:55:28;3.35;;;0.80;;
50122;SDS011;36021;48.670;6.184;2023-04-03T15:57:57;0.80;;;0.80;;
50122;SDS011;36021;48.670;6.184;2023-04-03T16:00:24;1.30;;;1.13;;
50122;SDS011;36021;48.670;6.184;2023-04-03T16:02:50;3.05;;;1.02;;
50122;SDS011;36021;48.670;6.184;2023-04-03T16:05:21;2.70;;;1.00;;
50122;SDS011;36021;48.670;6.184;2023-04-03T16:07:48;1.08;;;0.90;;
50122;SDS011;36021;48.670;6.184;2023-04-03T16:10:16;1.00;;;0.88;;
50122;SDS011;36021;48.670;6.184;2023-04-03T16:12:43;0.93;;;0.80;;
50122;SDS011;36021;48.670;6.184;2023-04-03T16:15:08;3.88;;;1.15;;
50122;SDS011;36021;48.670;6.184;2023-04-03T16:17:35;0.95;;;0.73;;
50122;SDS011;36021;48.670;6.184;2023-04-03T16:20:03;3.65;;;0.98;;
50122;SDS011;36021;48.670;6.184;2023-04-03T16:22:33;2.72;;;0.90;;
50122;SDS011;36021;48.670;6.184;2023-04-03T16:24:59;2.97;;;1.10;;
50122;SDS011;36021;48.670;6.184;2023-04-03T16:27:25;1.17;;;1.05;;
50122;SDS011;36021;48.670;6.184;2023-04-03T16:29:56;0.68;;;0.60;;
50122;SDS011;36021;48.670;6.184;2023-04-03T16:32:22;1.30;;;1.00;;
50122;SDS011;36021;48.670;6.184;2023-04-03T16:34:48;3.20;;;1.00;;